createdAt,value
2018-08-25T00:00:17.166Z,97742.72
2018-08-25T00:01:52.575Z,97792.26
2018-08-25T00:03:28.652Z,97794.95
2018-08-25T00:05:05.356Z,97819.00
2018-08-25T00:06:40.645Z,97777.38
2018-08-25T00:08:15.976Z,97796.30
2018-08-25T00:09:51.524Z,97821.20
2018-08-25T00:11:26.908Z,97834.77
2018-08-25T00:13:04.321Z,97856.75
2018-08-25T00:14:42.258Z,97870.30
2018-08-25T00:16:19.718Z,97863.85
2018-08-25T00:17:56.136Z,97844.53
2018-08-25T00:19:31.427Z,97862.84
2018-08-25T00:21:07.024Z,97867.60
2018-08-25T00:22:43.547Z,97864.55
2018-08-25T00:24:19.426Z,97893.14
2018-08-25T00:25:56.758Z,97908.52
2018-08-25T00:27:33.358Z,97879.59
2018-08-25T00:29:11.528Z,97911.22
2018-08-25T00:30:53.817Z,97925.16
2018-08-25T00:32:29.242Z,97903.13
2018-08-25T00:34:05.483Z,97867.60
2018-08-25T00:35:41.477Z,97829.02
2018-08-25T00:37:17.316Z,97809.01
2018-08-25T00:38:52.851Z,97785.69
2018-08-25T00:40:29.949Z,97765.06
2018-08-25T00:42:06.362Z,97730.88
2018-08-25T00:43:41.636Z,97738.69
2018-08-25T00:45:18.845Z,97722.59
2018-08-25T00:46:54.837Z,97738.33
2018-08-25T00:48:30.411Z,97719.05
2018-08-25T00:50:07.917Z,97728.18
2018-08-25T00:51:44.182Z,97720.23
2018-08-25T00:53:19.954Z,97729.52
2018-08-25T00:54:56.465Z,97724.99
2018-08-25T00:56:33.433Z,97711.95
2018-08-25T00:58:10.546Z,97676.44
2018-08-25T00:59:46.445Z,97630.61
2018-08-25T01:01:21.772Z,97540.68
2018-08-25T01:02:57.036Z,97494.23
2018-08-25T01:04:33.287Z,97503.88
2018-08-25T01:06:08.888Z,97502.53
2018-08-25T01:07:44.517Z,97506.08
2018-08-25T01:09:19.988Z,97501.19
2018-08-25T01:10:55.226Z,97537.99
2018-08-25T01:12:31.184Z,97506.93
2018-08-25T01:14:06.575Z,97484.99
2018-08-25T01:15:43.121Z,97511.81
2018-08-25T01:17:18.837Z,97514.34
2018-08-25T01:18:54.515Z,97489.84
2018-08-25T01:20:30.521Z,97440.90
2018-08-25T01:22:05.804Z,97461.84
2018-08-25T01:23:42.023Z,97477.19
2018-08-25T01:25:18.726Z,97455.75
2018-08-25T01:26:54.388Z,97482.08
2018-08-25T01:28:29.736Z,97500.70
2018-08-25T01:30:07.738Z,97516.54
2018-08-25T01:31:44.836Z,97499.48
2018-08-25T01:33:21.199Z,97482.44
2018-08-25T01:34:56.485Z,97460.14
2018-08-25T01:36:31.706Z,97449.33
2018-08-25T01:38:08.250Z,97441.25
2018-08-25T01:39:44.705Z,97469.25
2018-08-25T01:41:20.190Z,97459.29
2018-08-25T01:42:55.547Z,97468.93
2018-08-25T01:44:31.912Z,97518.73
2018-08-25T01:46:07.507Z,97520.44
2018-08-25T01:47:42.875Z,97588.84
2018-08-25T01:49:18.174Z,97595.93
2018-08-25T01:50:53.809Z,97595.83
2018-08-25T01:52:29.016Z,97563.84
2018-08-25T01:54:04.473Z,97532.41
2018-08-25T01:55:39.720Z,97470.11
2018-08-25T01:57:14.924Z,97473.29
2018-08-25T01:58:51.000Z,97458.93
2018-08-25T02:00:27.380Z,97446.47
2018-08-25T02:02:04.446Z,97468.93
2018-08-25T02:03:40.043Z,97500.47
2018-08-25T02:05:15.289Z,97506.44
2018-08-25T02:06:54.357Z,97541.53
2018-08-25T02:08:29.561Z,97567.38
2018-08-25T02:10:05.407Z,97574.83
2018-08-25T02:11:41.872Z,97570.92
2018-08-25T02:14:59.277Z,97508.28
2018-08-25T02:16:34.853Z,97499.98
2018-08-25T02:18:10.701Z,97496.44
2018-08-25T02:19:45.970Z,97479.39
2018-08-25T02:21:21.243Z,97388.39
2018-08-25T02:22:57.195Z,97361.84
2018-08-25T02:24:32.474Z,97438.34
2018-08-25T02:26:07.838Z,97484.77
2018-08-25T02:27:43.128Z,97542.88
2018-08-25T02:29:22.184Z,97549.97
2018-08-25T02:30:58.601Z,97539.01
2018-08-25T02:32:33.852Z,97528.88
2018-08-25T02:34:09.104Z,97524.48
2018-08-25T02:35:45.948Z,97515.85
2018-08-25T02:37:21.174Z,97506.22
2018-08-25T02:38:56.440Z,97521.92
2018-08-25T02:40:31.720Z,97500.97
2018-08-25T02:42:07.458Z,97433.59
2018-08-25T02:43:42.754Z,97425.16
2018-08-25T02:45:23.684Z,97405.07
2018-08-25T02:46:58.930Z,97438.11
2018-08-25T02:48:34.603Z,97379.77
2018-08-25T02:50:10.329Z,97395.83
2018-08-25T02:51:45.854Z,97398.65
2018-08-25T02:53:21.245Z,97361.03
2018-08-25T02:54:57.685Z,97367.09
2018-08-25T02:56:32.952Z,97241.90
2018-08-25T02:58:11.122Z,97125.06
2018-08-25T02:59:48.835Z,97027.68
2018-08-25T03:01:27.321Z,97024.32
2018-08-25T03:03:02.946Z,97018.59
2018-08-25T03:04:38.288Z,96959.65
2018-08-25T03:06:14.328Z,96887.59
2018-08-25T03:07:50.578Z,96900.41
2018-08-25T03:09:26.377Z,96879.84
2018-08-25T03:11:01.764Z,96880.70
2018-08-25T03:12:37.248Z,96879.50
2018-08-25T03:14:12.477Z,96903.30
2018-08-25T03:15:48.163Z,96922.63
2018-08-25T03:17:23.549Z,96937.78
2018-08-25T03:18:58.862Z,96862.86
2018-08-25T03:20:34.965Z,96856.30
2018-08-25T03:22:10.305Z,96866.72
2018-08-25T03:23:45.725Z,96867.73
2018-08-25T03:25:21.272Z,96861.03
2018-08-25T03:26:56.998Z,96885.92
2018-08-25T03:28:32.288Z,96853.12
2018-08-25T03:30:09.439Z,96821.97
2018-08-25T03:31:46.087Z,96779.94
2018-08-25T03:33:21.756Z,96765.00
2018-08-25T03:34:57.018Z,96749.83
2018-08-25T03:36:32.155Z,96660.57
2018-08-25T03:38:07.593Z,96534.56
2018-08-25T03:39:43.146Z,96497.10
2018-08-25T03:41:18.804Z,96455.81
2018-08-25T03:42:54.007Z,96388.52
2018-08-25T03:44:32.803Z,96348.45
2018-08-25T03:46:09.652Z,96348.77
2018-08-25T03:47:45.775Z,96357.98
2018-08-25T03:49:21.089Z,96405.80
2018-08-25T03:50:56.321Z,96444.55
2018-08-25T03:52:32.447Z,96429.78
2018-08-25T03:54:07.647Z,96421.58
2018-08-25T03:55:42.845Z,96462.02
2018-08-25T03:57:19.099Z,96468.04
2018-08-25T03:58:54.477Z,96464.87
2018-08-25T04:00:29.828Z,96450.60
2018-08-25T04:02:05.061Z,96435.00
2018-08-25T04:03:40.699Z,96380.27
2018-08-25T04:05:15.945Z,96420.23
2018-08-25T04:06:51.211Z,96453.77
2018-08-25T04:08:26.571Z,96488.19
2018-08-25T04:10:02.515Z,96502.95
2018-08-25T04:11:37.753Z,96464.69
2018-08-25T04:13:13.184Z,96455.11
2018-08-25T04:14:48.605Z,96436.97
2018-08-25T04:16:24.920Z,96450.39
2018-08-25T04:18:00.173Z,96395.70
2018-08-25T04:19:35.367Z,96462.16
2018-08-25T04:21:10.658Z,96511.83
2018-08-25T04:22:46.046Z,96551.34
2018-08-25T04:24:21.399Z,96534.88
2018-08-25T04:25:56.638Z,96532.69
2018-08-25T04:27:31.900Z,96481.78
2018-08-25T04:29:07.717Z,96502.42
2018-08-25T04:30:43.428Z,96519.73
2018-08-25T04:32:18.687Z,96532.20
2018-08-25T04:33:54.880Z,96557.05
2018-08-25T04:35:31.007Z,96589.44
2018-08-25T04:37:06.895Z,96544.25
2018-08-25T04:38:43.349Z,96605.55
2018-08-25T04:40:18.840Z,96585.91
2018-08-25T04:41:54.617Z,96535.13
2018-08-25T04:43:30.156Z,96481.59
2018-08-25T04:45:09.175Z,96482.09
2018-08-25T04:46:44.628Z,96526.91
2018-08-25T04:48:20.280Z,96495.66
2018-08-25T04:49:56.190Z,96507.78
2018-08-25T04:51:31.479Z,96506.09
2018-08-25T04:53:12.555Z,96483.08
2018-08-25T04:54:47.711Z,96332.08
2018-08-25T04:56:22.966Z,96235.84
2018-08-25T04:57:58.180Z,96169.13
2018-08-25T05:01:50.096Z,96289.32
2018-08-25T05:03:46.061Z,96344.97
2018-08-25T05:05:41.489Z,96369.29
2018-08-25T05:07:23.222Z,96394.61
2018-08-25T05:09:10.151Z,96423.30
2018-08-25T05:10:59.392Z,96405.66
2018-08-25T05:12:56.217Z,96444.27
2018-08-25T05:14:41.440Z,96408.05
2018-08-25T05:16:17.170Z,96464.23
2018-08-25T05:21:35.160Z,96520.81
2018-08-25T05:23:28.603Z,96582.98
2018-08-25T05:25:12.377Z,96484.38
2018-08-25T05:27:03.017Z,96479.17
2018-08-25T05:28:58.671Z,96487.05
2018-08-25T05:32:45.978Z,96645.10
2018-08-25T05:34:30.694Z,96825.11
2018-08-25T05:36:06.619Z,96990.55
2018-08-25T05:37:42.132Z,97146.70
2018-08-25T05:39:17.608Z,97271.61
2018-08-25T05:40:53.598Z,97098.81
2018-08-25T05:42:28.730Z,97145.98
2018-08-25T05:44:04.265Z,97166.05
2018-08-25T05:45:39.860Z,97149.66
2018-08-25T05:47:15.015Z,97012.55
2018-08-25T05:48:50.215Z,96919.27
2018-08-25T05:50:25.406Z,96832.31
2018-08-25T05:52:00.700Z,96875.03
2018-08-25T05:53:36.578Z,96968.42
2018-08-25T05:55:12.785Z,97044.05
2018-08-25T05:56:48.012Z,97031.91
2018-08-25T05:58:23.270Z,96969.90
2018-08-25T05:59:58.763Z,96962.65
2018-08-25T06:01:36.924Z,96934.34
2018-08-25T06:03:12.089Z,97018.91
2018-08-25T06:04:47.371Z,97007.49
2018-08-25T06:06:24.154Z,96989.78
2018-08-25T06:07:59.300Z,97099.75
2018-08-25T06:09:34.483Z,97093.66
2018-08-25T06:11:09.864Z,97134.62
2018-08-25T06:12:45.592Z,97118.59
2018-08-25T06:14:20.742Z,97072.44
2018-08-25T06:15:57.065Z,97006.42
2018-08-25T06:17:32.286Z,96942.08
2018-08-25T06:19:08.174Z,96940.20
2018-08-25T06:20:43.349Z,96924.06
2018-08-25T06:22:18.567Z,96868.23
2018-08-25T06:23:55.187Z,96839.45
2018-08-25T06:25:31.172Z,96835.08
2018-08-25T06:27:06.711Z,96806.48
2018-08-25T06:28:42.588Z,96776.02
2018-08-25T06:30:20.664Z,96803.80
2018-08-25T06:31:55.787Z,96806.48
2018-08-25T06:33:31.522Z,96783.08
2018-08-25T06:35:06.969Z,96666.14
2018-08-25T06:36:42.591Z,96641.91
2018-08-25T06:38:17.890Z,96673.64
2018-08-25T06:39:53.230Z,96720.02
2018-08-25T06:41:29.951Z,96752.98
2018-08-25T06:43:06.445Z,96783.22
2018-08-25T06:44:42.875Z,96805.77
2018-08-25T06:46:35.425Z,96720.02
2018-08-25T06:48:16.702Z,96771.46
2018-08-25T06:50:00.640Z,96911.23
2018-08-25T06:51:37.703Z,97007.81
2018-08-25T06:53:12.908Z,97122.56
2018-08-25T06:54:48.649Z,97116.83
2018-08-25T06:56:24.927Z,97128.06
2018-08-25T06:58:00.291Z,97140.23
2018-08-25T06:59:36.423Z,97070.33
2018-08-25T07:01:13.437Z,97079.55
2018-08-25T07:02:51.932Z,97111.41
2018-08-25T07:04:27.292Z,97039.33
2018-08-25T07:06:02.626Z,97043.71
2018-08-25T07:07:39.644Z,97072.30
2018-08-25T07:09:14.785Z,97034.76
2018-08-25T07:10:49.953Z,97002.03
2018-08-25T07:12:25.248Z,96970.56
2018-08-25T07:14:00.916Z,96905.59
2018-08-25T07:15:37.339Z,96876.00
2018-08-25T07:17:13.725Z,96823.69
2018-08-25T07:18:50.695Z,96809.03
2018-08-25T07:20:27.322Z,96858.80
2018-08-25T07:22:02.508Z,96769.69
2018-08-25T07:23:37.780Z,96735.39
2018-08-25T07:25:13.374Z,96722.93
2018-08-25T07:26:49.505Z,96724.98
2018-08-25T07:28:24.730Z,96725.47
2018-08-25T07:29:59.904Z,96769.37
2018-08-25T07:31:35.701Z,96805.64
2018-08-25T07:33:10.898Z,96799.60
2018-08-25T07:34:46.054Z,96782.45
2018-08-25T07:36:21.547Z,96782.95
2018-08-25T07:37:58.868Z,96807.97
2018-08-25T07:39:34.449Z,96819.62
2018-08-25T07:41:12.063Z,96863.67
2018-08-25T07:42:52.673Z,96905.55
2018-08-25T07:44:28.678Z,96954.98
2018-08-25T07:46:08.773Z,96949.63
2018-08-25T07:47:44.662Z,96991.69
2018-08-25T07:49:21.094Z,97019.97
2018-08-25T07:50:58.864Z,97015.27
2018-08-25T07:52:34.291Z,96961.06
2018-08-25T07:54:09.473Z,96862.60
2018-08-25T07:55:45.202Z,96950.25
2018-08-25T07:57:20.633Z,96999.57
2018-08-25T07:58:56.045Z,97021.30
2018-08-25T08:00:31.340Z,97067.28
2018-08-25T08:02:07.671Z,97105.70
2018-08-25T08:03:43.906Z,97081.77
2018-08-25T08:05:20.836Z,97075.06
2018-08-25T08:06:56.499Z,97138.02
2018-08-25T08:08:31.803Z,97196.17
2018-08-25T08:10:08.945Z,97222.45
2018-08-25T08:11:45.609Z,97153.86
2018-08-25T08:13:20.938Z,97223.80
2018-08-25T08:14:58.658Z,97294.73
2018-08-25T08:16:34.238Z,97309.44
2018-08-25T08:18:11.769Z,97417.08
2018-08-25T08:19:48.923Z,97447.66
2018-08-25T08:21:24.772Z,97544.66
2018-08-25T08:23:01.549Z,97520.20
2018-08-25T08:24:37.628Z,97441.36
2018-08-25T08:26:13.574Z,97460.59
2018-08-25T08:27:50.452Z,97450.14
2018-08-25T08:29:25.859Z,97482.66
2018-08-25T08:31:02.845Z,97511.91
2018-08-25T08:32:39.103Z,97538.59
2018-08-25T08:34:16.544Z,97462.30
2018-08-25T08:35:54.272Z,97581.48
2018-08-25T08:37:32.461Z,97710.41
2018-08-25T08:39:17.373Z,97784.11
2018-08-25T08:40:57.369Z,97917.94
2018-08-25T08:42:33.244Z,97996.14
2018-08-25T08:44:09.255Z,98077.77
2018-08-25T08:45:45.312Z,98131.22
2018-08-25T08:47:21.718Z,98226.55
2018-08-25T08:48:58.386Z,98247.22
2018-08-25T08:50:34.627Z,98271.45
2018-08-25T08:52:12.642Z,98227.40
2018-08-25T08:53:49.505Z,98121.58
2018-08-25T08:55:24.862Z,97955.11
2018-08-25T08:57:00.405Z,97866.94
2018-08-25T08:58:39.283Z,97807.58
2018-08-25T09:00:15.887Z,97752.25
2018-08-25T09:01:51.723Z,97804.13
2018-08-25T09:03:27.564Z,97925.30
2018-08-25T09:05:03.926Z,97985.05
2018-08-25T09:06:39.771Z,97951.69
2018-08-25T09:08:16.432Z,97931.90
2018-08-25T09:09:55.644Z,98018.39
2018-08-25T09:11:32.363Z,98037.00
2018-08-25T09:13:10.488Z,98009.25
2018-08-25T09:14:45.836Z,97800.75
2018-08-25T09:16:23.019Z,97780.61
2018-08-25T09:18:00.597Z,97793.66
2018-08-25T09:19:36.100Z,97757.27
2018-08-25T09:21:11.435Z,97769.13
2018-08-25T09:22:53.692Z,97807.31
2018-08-25T09:24:33.389Z,97773.16
2018-08-25T09:26:19.157Z,97778.42
2018-08-25T09:27:54.449Z,97868.41
2018-08-25T09:29:29.716Z,97811.22
2018-08-25T09:31:05.981Z,97762.66
2018-08-25T09:32:44.086Z,97776.70
2018-08-25T09:34:19.716Z,97872.81
2018-08-25T09:35:57.714Z,97905.64
2018-08-25T09:37:34.393Z,97974.04
2018-08-25T09:39:11.760Z,98000.07
2018-08-25T09:40:47.298Z,98058.88
2018-08-25T09:42:24.375Z,98124.16
2018-08-25T09:44:01.969Z,98098.27
2018-08-25T09:45:37.948Z,98117.09
2018-08-25T09:47:13.756Z,98165.39
2018-08-25T09:48:49.106Z,98220.33
2018-08-25T09:50:25.147Z,98213.22
2018-08-25T09:52:02.565Z,98172.50
2018-08-25T09:53:43.657Z,98193.53
2018-08-25T09:55:26.404Z,98201.00
2018-08-25T09:57:02.575Z,98206.77
2018-08-25T09:58:40.370Z,98123.82
2018-08-25T10:00:20.366Z,97979.55
2018-08-25T10:02:00.366Z,98046.42
2018-08-25T10:03:36.506Z,98146.53
2018-08-25T10:05:18.741Z,98124.16
2018-08-25T10:07:03.066Z,98104.34
2018-08-25T10:08:50.339Z,98010.35
2018-08-25T10:10:28.801Z,98016.47
2018-08-25T10:12:05.691Z,98014.14
2018-08-25T10:13:42.525Z,97887.83
2018-08-25T10:15:19.135Z,97939.12
2018-08-25T10:16:54.301Z,98062.18
2018-08-25T10:18:30.913Z,98053.52
2018-08-25T10:21:45.494Z,98030.02
2018-08-25T10:23:20.699Z,98020.39
2018-08-25T10:24:59.920Z,98106.55
2018-08-25T10:26:41.141Z,98158.91
2018-08-25T10:28:16.427Z,98171.15
2018-08-25T10:29:52.522Z,98182.66
2018-08-25T10:31:31.657Z,98083.94
2018-08-25T10:33:06.876Z,98078.43
2018-08-25T10:34:42.921Z,98077.94
2018-08-25T10:36:18.597Z,98229.52
2018-08-25T10:37:55.180Z,98315.79
2018-08-25T10:39:30.884Z,98371.27
2018-08-25T10:41:06.480Z,98417.44
2018-08-25T10:42:42.692Z,98341.02
2018-08-25T10:44:18.541Z,98336.63
2018-08-25T10:45:54.449Z,98263.77
2018-08-25T10:47:29.700Z,98277.61
2018-08-25T10:49:05.024Z,98341.38
2018-08-25T10:50:41.812Z,98255.09
2018-08-25T10:52:17.542Z,98165.15
2018-08-25T10:53:53.847Z,98102.15
2018-08-25T10:55:29.087Z,98033.45
2018-08-25T10:57:04.241Z,98015.98
2018-08-25T10:58:40.209Z,97971.96
2018-08-25T11:00:18.002Z,98034.92
2018-08-25T11:01:55.041Z,98116.59
2018-08-25T11:03:31.975Z,98132.84
2018-08-25T11:05:07.239Z,98178.98
2018-08-25T11:06:42.688Z,98247.13
2018-08-25T11:08:18.796Z,98289.72
2018-08-25T11:09:55.353Z,98318.86
2018-08-25T11:11:30.520Z,98323.27
2018-08-25T11:13:05.654Z,98421.70
2018-08-25T11:14:41.405Z,98563.80
2018-08-25T11:16:16.792Z,98416.95
2018-08-25T11:17:51.951Z,98279.70
2018-08-25T11:19:27.829Z,98245.78
2018-08-25T11:21:05.573Z,98309.17
2018-08-25T11:22:40.752Z,98244.44
2018-08-25T11:24:15.953Z,98137.95
2018-08-25T11:25:51.185Z,98132.36
2018-08-25T11:27:28.528Z,98204.06
2018-08-25T11:29:06.590Z,98273.94
2018-08-25T11:30:45.756Z,98324.13
2018-08-25T11:32:25.636Z,98287.51
2018-08-25T11:34:01.936Z,98263.77
2018-08-25T11:35:38.773Z,98272.59
2018-08-25T11:37:14.663Z,98289.59
2018-08-25T11:38:53.523Z,98345.18
2018-08-25T11:40:30.162Z,98441.58
2018-08-25T11:42:07.120Z,98399.28
2018-08-25T11:43:42.377Z,98383.50
2018-08-25T11:45:19.511Z,98435.81
2018-08-25T11:46:57.275Z,98277.33
2018-08-25T11:48:32.429Z,98322.29
2018-08-25T11:50:08.625Z,98346.53
2018-08-25T11:51:44.682Z,98319.72
2018-08-25T11:53:21.241Z,98334.64
2018-08-25T11:54:56.380Z,98339.78
2018-08-25T11:56:31.609Z,98321.27
2018-08-25T11:58:06.799Z,98343.84
2018-08-25T11:59:42.306Z,98349.93
2018-08-25T12:01:18.810Z,98359.12
2018-08-25T12:02:54.781Z,98417.66
2018-08-25T12:04:31.344Z,98427.34
2018-08-25T12:06:06.696Z,98393.40
2018-08-25T12:07:42.263Z,98429.06
2018-08-25T12:09:18.402Z,98379.70
2018-08-25T12:10:54.196Z,98401.25
2018-08-25T12:12:33.675Z,98499.55
2018-08-25T12:14:08.969Z,98652.05
2018-08-25T12:15:44.925Z,98712.06
2018-08-25T12:17:21.856Z,98732.19
2018-08-25T12:18:57.531Z,98682.11
2018-08-25T12:20:33.314Z,98633.42
2018-08-25T12:22:09.188Z,98562.91
2018-08-25T12:23:44.428Z,98551.16
2018-08-25T12:25:19.897Z,98581.91
2018-08-25T12:26:56.937Z,98564.14
2018-08-25T12:28:33.317Z,98528.08
2018-08-25T12:30:12.381Z,98408.36
2018-08-25T12:31:53.392Z,98381.05
2018-08-25T12:33:32.458Z,98259.23
2018-08-25T12:35:09.501Z,98224.45
2018-08-25T12:36:47.357Z,98174.30
2018-08-25T12:38:23.003Z,98220.29
2018-08-25T12:40:04.996Z,98290.30
2018-08-25T12:41:41.439Z,98256.90
2018-08-25T12:43:17.643Z,98297.77
2018-08-25T12:44:54.269Z,98215.39
2018-08-25T12:46:29.504Z,98153.14
2018-08-25T12:48:07.230Z,98138.20
2018-08-25T12:49:42.644Z,98164.03
2018-08-25T12:51:20.921Z,98240.48
2018-08-25T12:53:26.587Z,98252.85
2018-08-25T12:55:05.822Z,98235.20
2018-08-25T12:56:43.367Z,98234.38
2018-08-25T12:58:18.563Z,98279.99
2018-08-25T12:59:55.285Z,98307.30
2018-08-25T13:01:33.368Z,98370.25
2018-08-25T13:03:10.500Z,98424.25
2018-08-25T13:04:45.700Z,98468.91
2018-08-25T13:06:20.947Z,98509.83
2018-08-25T13:08:02.385Z,98480.41
2018-08-25T13:09:39.877Z,98453.29
2018-08-25T13:11:16.423Z,98449.36
2018-08-25T13:12:52.486Z,98496.20
2018-08-25T13:14:33.663Z,98516.79
2018-08-25T13:16:10.484Z,98529.06
2018-08-25T13:17:47.871Z,98597.47
2018-08-25T13:19:23.052Z,98629.95
2018-08-25T13:20:58.393Z,98677.82
2018-08-25T13:22:33.836Z,98589.49
2018-08-25T13:24:09.078Z,98514.58
2018-08-25T13:25:45.664Z,98472.30
2018-08-25T13:27:22.453Z,98452.06
2018-08-25T13:29:00.730Z,98459.55
2018-08-25T13:30:38.913Z,98390.34
2018-08-25T13:32:16.237Z,98386.78
2018-08-25T13:33:52.353Z,98299.70
2018-08-25T13:35:28.605Z,98162.69
2018-08-25T13:37:05.255Z,98122.64
2018-08-25T13:38:40.771Z,98090.34
2018-08-25T13:40:17.573Z,98123.74
2018-08-25T13:41:52.831Z,98089.48
2018-08-25T13:43:30.086Z,98020.42
2018-08-25T13:45:07.584Z,98006.38
2018-08-25T13:46:46.624Z,98018.22
2018-08-25T13:48:22.666Z,98039.36
2018-08-25T13:49:58.539Z,97978.27
2018-08-25T13:51:33.891Z,97969.59
2018-08-25T13:53:10.488Z,98030.09
2018-08-25T13:54:47.282Z,98046.34
2018-08-25T13:56:22.782Z,98034.95
2018-08-25T13:57:58.074Z,98064.79
2018-08-25T13:59:34.161Z,98101.37
2018-08-25T14:01:12.637Z,98159.34
2018-08-25T14:02:47.888Z,98246.81
2018-08-25T14:04:25.019Z,98348.30
2018-08-25T14:06:02.935Z,98315.72
2018-08-25T14:07:39.789Z,98355.91
2018-08-25T14:09:16.715Z,98236.67
2018-08-25T14:10:54.433Z,98188.71
2018-08-25T14:12:29.996Z,98086.30
2018-08-25T14:14:07.581Z,98004.18
2018-08-25T14:15:42.767Z,97919.73
2018-08-25T14:17:19.279Z,97907.54
2018-08-25T14:18:55.262Z,98003.69
2018-08-25T14:20:33.868Z,98117.86
2018-08-25T14:22:12.952Z,98120.55
2018-08-25T14:23:50.694Z,98108.67
2018-08-25T14:25:26.043Z,98234.84
2018-08-25T14:27:02.697Z,98265.69
2018-08-25T14:28:38.969Z,98287.23
2018-08-25T14:30:16.882Z,98288.91
2018-08-25T14:31:54.208Z,98291.11
2018-08-25T14:33:32.437Z,98256.86
2018-08-25T14:35:10.466Z,98179.89
2018-08-25T14:36:46.321Z,98205.34
2018-08-25T14:38:24.668Z,98199.09
2018-08-25T14:40:01.194Z,98232.14
2018-08-25T14:41:36.378Z,98273.50
2018-08-25T14:43:11.742Z,98242.28
2018-08-25T14:44:47.627Z,98117.37
2018-08-25T14:46:24.230Z,98098.88
2018-08-25T14:48:00.435Z,97992.39
2018-08-25T14:49:35.943Z,97942.94
2018-08-25T14:51:12.215Z,97869.29
2018-08-25T14:52:50.434Z,97806.91
2018-08-25T14:54:27.564Z,97845.84
2018-08-25T14:56:03.139Z,97804.55
2018-08-25T14:57:38.301Z,97585.82
2018-08-25T14:59:13.577Z,97500.53
2018-08-25T15:00:50.499Z,97459.32
2018-08-25T15:02:29.768Z,97280.81
2018-08-25T15:04:06.415Z,97101.68
2018-08-25T15:05:42.437Z,97067.64
2018-08-25T15:07:20.672Z,97009.18
2018-08-25T15:08:56.409Z,97033.60
2018-08-25T15:10:32.593Z,97033.11
2018-08-25T15:12:08.709Z,97036.15
2018-08-25T15:13:43.981Z,97046.12
2018-08-25T15:15:24.895Z,97079.44
2018-08-25T15:17:01.525Z,97118.69
2018-08-25T15:18:42.482Z,97185.07
2018-08-25T15:20:20.433Z,97274.46
2018-08-25T15:21:57.768Z,97323.02
2018-08-25T15:23:32.921Z,97408.75
2018-08-25T15:25:11.488Z,97480.50
2018-08-25T15:26:49.992Z,97541.09
2018-08-25T15:28:28.623Z,97574.21
2018-08-25T15:30:05.579Z,97587.86
2018-08-25T15:31:41.879Z,97577.27
2018-08-25T15:33:19.240Z,97480.50
2018-08-25T15:34:57.597Z,97495.64
2018-08-25T15:36:33.947Z,97437.98
2018-08-25T15:38:22.735Z,97417.05
2018-08-25T15:40:00.032Z,97505.12
2018-08-25T15:41:37.803Z,97544.11
2018-08-25T15:43:16.884Z,97503.91
2018-08-25T15:44:54.132Z,97534.62
2018-08-25T15:46:30.800Z,97431.17
2018-08-25T15:48:07.996Z,97542.07
2018-08-25T15:49:45.105Z,97618.10
2018-08-25T15:51:21.887Z,97665.91
2018-08-25T15:52:58.372Z,97686.03
2018-08-25T15:54:34.488Z,97714.95
2018-08-25T15:56:10.658Z,97739.23
2018-08-25T15:57:45.854Z,97747.18
2018-08-25T15:59:21.625Z,97817.75
2018-08-25T16:00:59.541Z,97898.11
2018-08-25T16:02:39.835Z,97917.41
2018-08-25T16:04:15.198Z,97927.53
2018-08-25T16:05:51.135Z,97919.61
2018-08-25T16:07:27.376Z,97918.26
2018-08-25T16:09:03.941Z,97939.75
2018-08-25T16:10:40.278Z,97951.22
2018-08-25T16:12:18.646Z,97928.87
2018-08-25T16:15:06.433Z,97967.50
2018-08-25T16:16:43.499Z,97981.66
2018-08-25T16:18:23.498Z,97911.78
2018-08-25T16:19:59.360Z,97803.49
2018-08-25T16:21:36.926Z,97716.22
2018-08-25T16:23:13.290Z,97651.17
2018-08-25T16:24:49.635Z,97601.83
2018-08-25T16:26:27.187Z,97563.65
2018-08-25T16:28:02.502Z,97578.67
2018-08-25T16:29:38.648Z,97615.47
2018-08-25T16:31:17.209Z,97667.05
2018-08-25T16:33:06.910Z,97747.31
2018-08-25T16:34:45.232Z,97811.44
2018-08-25T16:36:22.177Z,97881.16
2018-08-25T16:37:58.144Z,97886.38
2018-08-25T16:39:33.310Z,97916.31
2018-08-25T16:41:11.959Z,97799.22
2018-08-25T16:43:05.425Z,97891.27
2018-08-25T16:44:44.441Z,97902.28
2018-08-25T16:46:20.524Z,97824.12
2018-08-25T16:47:57.399Z,97821.92
2018-08-25T16:49:34.399Z,97835.74
2018-08-25T16:51:14.623Z,97809.73
2018-08-25T16:52:53.276Z,97914.27
2018-08-25T16:54:28.437Z,98030.09
2018-08-25T16:56:05.863Z,98074.09
2018-08-25T16:57:42.535Z,98048.41
2018-08-25T16:59:18.537Z,98035.81
2018-08-25T17:00:54.547Z,97999.41
2018-08-25T17:02:30.321Z,97999.41
2018-08-25T17:04:06.820Z,97933.92
2018-08-25T17:07:22.211Z,97851.35
2018-08-25T17:09:05.917Z,97850.13
2018-08-25T17:10:43.210Z,97889.23
2018-08-25T17:12:21.315Z,97877.86
2018-08-25T17:13:58.281Z,97901.06
2018-08-25T17:15:37.996Z,97906.31
2018-08-25T17:17:13.833Z,97892.25
2018-08-25T17:18:49.044Z,97908.52
2018-08-25T17:20:25.074Z,97900.56
2018-08-25T17:22:00.892Z,97877.86
2018-08-25T17:23:37.492Z,97826.81
2018-08-25T17:25:12.737Z,97813.77
2018-08-25T17:26:48.796Z,97783.36
2018-08-25T17:28:25.658Z,97763.33
2018-08-25T17:30:04.919Z,97714.02
2018-08-25T17:31:41.403Z,97708.28
2018-08-25T17:33:18.423Z,97704.50
2018-08-25T17:34:56.473Z,97653.17
2018-08-25T17:36:32.622Z,97604.52
2018-08-25T17:38:11.391Z,97581.36
2018-08-25T17:39:49.542Z,97585.72
2018-08-25T17:43:16.585Z,97417.41
2018-08-25T17:44:58.893Z,97347.56
2018-08-25T17:47:15.399Z,97255.64
2018-08-25T17:48:55.224Z,97143.88
2018-08-25T17:50:42.752Z,97145.22
2018-08-25T17:52:27.397Z,97173.20
2018-08-25T17:54:12.181Z,97190.22
2018-08-25T17:55:56.972Z,97185.38
2018-08-25T17:57:33.525Z,97149.61
2018-08-25T17:59:10.932Z,97156.19
2018-08-25T18:00:49.454Z,97143.56
2018-08-25T18:02:27.472Z,97157.75
2018-08-25T18:04:07.824Z,97176.95
2018-08-25T18:05:54.686Z,97195.45
2018-08-25T18:09:40.236Z,97221.73
2018-08-25T18:11:17.844Z,97215.02
2018-08-25T18:13:01.562Z,97222.09
2018-08-25T18:14:41.211Z,97236.06
2018-08-25T18:16:19.519Z,97270.14
2018-08-25T18:17:59.272Z,97260.88
2018-08-25T18:19:45.824Z,97305.54
2018-08-25T18:21:25.742Z,97330.50
2018-08-25T18:23:10.963Z,97385.16
2018-08-25T18:24:53.334Z,97401.22
2018-08-25T18:26:28.650Z,97392.73
2018-08-25T18:28:06.699Z,97400.37
2018-08-25T18:29:43.785Z,97397.32
2018-08-25T18:31:22.617Z,97389.91
2018-08-25T18:32:58.602Z,97417.41
2018-08-25T18:34:35.016Z,97427.07
2018-08-25T18:36:13.186Z,97445.59
2018-08-25T18:37:49.432Z,97458.63
2018-08-25T18:39:24.844Z,97472.27
2018-08-25T18:41:02.287Z,97431.11
2018-08-25T18:42:39.127Z,97408.30
2018-08-25T18:44:15.654Z,97365.94
2018-08-25T18:45:57.258Z,97288.02
2018-08-25T18:47:32.608Z,97252.77
2018-08-25T18:49:07.897Z,97231.22
2018-08-25T18:50:43.203Z,97238.62
2018-08-25T18:52:18.474Z,97279.91
2018-08-25T18:53:54.639Z,97316.51
2018-08-25T18:55:33.589Z,97354.96
2018-08-25T18:57:12.647Z,97375.04
2018-08-25T18:58:49.388Z,97388.70
2018-08-25T19:00:27.030Z,97414.39
2018-08-25T19:02:02.530Z,97437.69
2018-08-25T19:03:41.605Z,97471.77
2018-08-25T19:05:17.165Z,97493.34
2018-08-25T19:06:53.463Z,97482.40
2018-08-25T19:08:30.358Z,97479.84
2018-08-25T19:10:08.504Z,97508.36
2018-08-25T19:11:44.464Z,97519.34
2018-08-25T19:13:22.559Z,97523.08
2018-08-25T19:15:00.257Z,97547.70
2018-08-25T19:16:36.238Z,97537.12
2018-08-25T19:18:13.961Z,97556.37